Time;durP1;ratioP1;P1;durP2;ratioP2;P2;SDS_P1;SDS_P2;PMS_P1;PMS_P2;Temp;Humidity;BMP_temperature;BMP_pressure;BME280_temperature;BME280_humidity;BME280_pressure;Samples;Min_cycle;Max_cycle;Signal;HPM_P1;HPM_P2
2022/03/31 00:00:40;;;;;;;49.45;31.45;;;6.20;99.90;;;;;;5137340;27;20283;-73
2022/03/31 00:03:09;;;;;;;42.60;31.40;;;6.10;99.90;;;;;;5137658;27;20189;-74
2022/03/31 00:05:36;;;;;;;50.10;31.13;;;6.10;99.90;;;;;;5136959;27;20217;-74
2022/03/31 00:08:06;;;;;;;47.10;30.90;;;6.10;99.90;;;;;;5136773;27;20232;-74
2022/03/31 00:10:35;;;;;;;49.63;32.40;;;6.20;99.90;;;;;;5136979;27;20222;-74
2022/03/31 00:13:04;;;;;;;50.05;30.90;;;6.10;99.90;;;;;;5136735;27;20205;-74
2022/03/31 00:15:31;;;;;;;41.80;29.10;;;6.10;99.90;;;;;;5136859;27;20197;-74
2022/03/31 00:17:59;;;;;;;46.85;28.77;;;6.00;99.90;;;;;;5118252;27;20653;-73
2022/03/31 00:20:26;;;;;;;41.53;29.50;;;6.00;99.90;;;;;;5136658;27;20205;-74
2022/03/31 00:22:54;;;;;;;44.33;29.48;;;6.00;99.90;;;;;;5136646;27;20672;-73
2022/03/31 00:25:22;;;;;;;44.25;29.35;;;6.10;99.90;;;;;;5136891;27;20194;-74
2022/03/31 00:27:49;;;;;;;51.90;30.95;;;6.10;99.90;;;;;;5136829;27;20194;-74
2022/03/31 00:30:16;;;;;;;45.10;29.98;;;6.10;99.90;;;;;;5136595;27;20254;-74
2022/03/31 00:32:42;;;;;;;47.53;31.50;;;6.10;99.90;;;;;;5118680;27;20194;-74
2022/03/31 00:35:12;;;;;;;46.58;29.25;;;6.20;99.90;;;;;;5136804;27;20198;-74
2022/03/31 00:37:43;;;;;;;43.10;29.15;;;6.20;99.90;;;;;;5136195;27;20197;-74
2022/03/31 00:40:12;;;;;;;48.85;31.05;;;6.20;99.90;;;;;;5136406;27;20234;-73
2022/03/31 00:42:43;;;;;;;43.67;28.08;;;6.10;99.90;;;;;;5136256;27;20570;-73
2022/03/31 00:45:21;;;;;;;49.72;30.42;;;6.20;99.90;;;;;;5136386;27;20190;-73
2022/03/31 00:47:47;;;;;;;51.58;31.10;;;6.20;99.90;;;;;;5136198;27;20185;-74
2022/03/31 00:50:14;;;;;;;46.63;30.00;;;6.10;99.90;;;;;;5136482;27;20273;-73
2022/03/31 00:52:41;;;;;;;43.42;30.83;;;6.10;99.90;;;;;;5135784;27;20200;-74
2022/03/31 00:55:10;;;;;;;48.38;31.63;;;6.10;99.90;;;;;;5135562;27;20206;-73
2022/03/31 00:57:37;;;;;;;43.85;29.45;;;6.10;99.90;;;;;;5136304;27;20206;-73
2022/03/31 01:00:08;;;;;;;45.83;30.15;;;6.10;99.90;;;;;;5136435;27;20198;-74
2022/03/31 01:02:38;;;;;;;44.80;29.02;;;6.20;99.90;;;;;;5136230;27;20268;-73
2022/03/31 01:05:06;;;;;;;46.10;29.10;;;6.20;99.90;;;;;;5136021;27;20186;-74
2022/03/31 01:07:37;;;;;;;46.70;29.35;;;6.20;99.90;;;;;;5135511;27;20233;-73
2022/03/31 01:10:05;;;;;;;46.78;29.25;;;6.20;99.90;;;;;;5136004;27;20229;-73
2022/03/31 01:12:33;;;;;;;41.53;28.73;;;6.20;99.90;;;;;;5135906;27;20672;-73
2022/03/31 01:15:16;;;;;;;46.05;29.92;;;6.20;99.90;;;;;;5116986;27;20202;-73
2022/03/31 01:17:44;;;;;;;44.03;27.85;;;6.20;99.90;;;;;;5135482;27;20201;-74
2022/03/31 01:20:17;;;;;;;46.35;31.00;;;6.20;99.90;;;;;;5136025;27;20213;-73
2022/03/31 01:22:44;;;;;;;43.40;28.02;;;6.30;99.90;;;;;;5135767;27;20570;-74
2022/03/31 01:25:11;;;;;;;41.70;27.40;;;6.30;99.90;;;;;;5135761;27;20246;-73
2022/03/31 01:27:43;;;;;;;41.90;29.52;;;6.40;99.90;;;;;;5100721;27;20234;-73
2022/03/31 01:30:13;;;;;;;41.38;28.23;;;6.40;99.90;;;;;;5135358;27;20272;-74
2022/03/31 01:32:43;;;;;;;38.95;27.60;;;6.40;99.90;;;;;;5135310;27;20178;-73
2022/03/31 01:35:09;;;;;;;38.63;26.55;;;6.40;99.90;;;;;;5134983;27;20220;-74
2022/03/31 01:37:36;;;;;;;39.17;27.02;;;6.40;99.90;;;;;;5135495;27;20254;-73
2022/03/31 01:40:04;;;;;;;41.28;27.75;;;6.40;99.90;;;;;;5134631;27;20235;-73
2022/03/31 01:42:31;;;;;;;39.70;27.98;;;6.40;99.90;;;;;;5116986;27;20206;-73
2022/03/31 01:44:59;;;;;;;37.42;25.20;;;6.40;99.90;;;;;;5135020;27;20206;-74
2022/03/31 01:47:25;;;;;;;35.50;26.65;;;6.40;99.90;;;;;;5116595;27;20549;-74
2022/03/31 01:49:52;;;;;;;37.10;25.63;;;6.30;99.90;;;;;;5134741;27;20637;-73
2022/03/31 01:52:19;;;;;;;33.40;25.38;;;6.30;99.90;;;;;;5134153;27;20193;-74
2022/03/31 01:54:45;;;;;;;35.80;25.55;;;6.30;99.90;;;;;;5134987;27;20550;-73
2022/03/31 01:57:12;;;;;;;29.83;24.25;;;6.30;99.90;;;;;;5134873;27;20680;-75
2022/03/31 01:59:43;;;;;;;35.25;24.48;;;6.30;99.90;;;;;;5116317;27;20205;-75
2022/03/31 02:02:12;;;;;;;30.27;23.65;;;6.30;99.90;;;;;;5117348;27;20182;-74
2022/03/31 02:04:41;;;;;;;34.38;25.15;;;6.20;99.90;;;;;;5116296;27;20202;-74
2022/03/31 02:07:09;;;;;;;34.03;24.38;;;6.10;99.90;;;;;;5116533;27;20222;-74
2022/03/31 02:09:36;;;;;;;31.40;23.00;;;6.00;99.90;;;;;;5134428;27;20225;-74
2022/03/31 02:12:03;;;;;;;28.38;22.08;;;6.10;99.90;;;;;;5134840;27;20638;-74
2022/03/31 02:14:30;;;;;;;29.70;22.33;;;6.00;99.90;;;;;;5134446;27;20258;-74
2022/03/31 02:16:56;;;;;;;29.02;22.63;;;5.90;99.90;;;;;;5116890;27;20194;-74
2022/03/31 02:19:24;;;;;;;32.83;22.20;;;5.90;99.90;;;;;;5134536;27;20202;-74
2022/03/31 02:21:51;;;;;;;34.08;23.20;;;5.90;99.90;;;;;;5134232;27;20197;-74
2022/03/31 02:24:18;;;;;;;34.75;25.52;;;5.80;99.90;;;;;;5134150;27;20201;-74
2022/03/31 02:26:44;;;;;;;30.92;23.05;;;5.70;99.90;;;;;;5118114;27;20205;-74
2022/03/31 02:29:12;;;;;;;32.22;24.08;;;5.70;99.90;;;;;;5136081;27;20231;-74
2022/03/31 02:31:38;;;;;;;33.03;20.80;;;5.80;99.90;;;;;;5136865;27;20201;-74
2022/03/31 02:34:05;;;;;;;28.40;21.15;;;5.70;99.90;;;;;;5118147;27;20536;-74
2022/03/31 02:36:32;;;;;;;27.70;19.70;;;5.70;99.90;;;;;;5136691;27;20247;-74
2022/03/31 02:38:58;;;;;;;32.25;22.23;;;5.70;99.90;;;;;;5136283;27;20206;-74
2022/03/31 02:41:25;;;;;;;30.52;21.55;;;5.70;99.90;;;;;;5136517;27;20201;-74
2022/03/31 02:43:52;;;;;;;28.23;21.67;;;5.70;99.90;;;;;;5101350;27;20612;-74
2022/03/31 02:46:19;;;;;;;27.80;19.90;;;5.80;99.90;;;;;;5135602;27;20206;-74
2022/03/31 02:48:46;;;;;;;32.72;21.92;;;5.80;99.90;;;;;;5136709;27;20209;-74
2022/03/31 02:51:12;;;;;;;28.02;20.15;;;5.80;99.90;;;;;;5118185;27;20696;-75
2022/03/31 02:56:23;;;;;;;25.85;21.05;;;5.90;99.90;;;;;;5136313;27;20649;-74
2022/03/31 02:58:50;;;;;;;24.73;19.10;;;5.80;99.90;;;;;;5118474;28;20201;-74
2022/03/31 03:01:16;;;;;;;29.17;20.95;;;5.80;99.90;;;;;;5136955;27;20206;-74
2022/03/31 03:03:43;;;;;;;26.13;20.25;;;5.80;99.90;;;;;;5136481;27;20620;-76
2022/03/31 03:06:09;;;;;;;28.48;18.80;;;5.70;99.90;;;;;;5137271;27;20270;-75
2022/03/31 03:08:36;;;;;;;25.25;20.23;;;5.70;99.90;;;;;;5136277;27;20731;-74
2022/03/31 03:11:02;;;;;;;28.17;20.10;;;5.70;99.90;;;;;;5135605;28;20225;-74
2022/03/31 03:13:29;;;;;;;24.27;19.02;;;5.60;99.90;;;;;;5118182;28;20202;-74
2022/03/31 03:15:55;;;;;;;25.20;19.25;;;5.60;99.90;;;;;;5118886;28;20201;-74
2022/03/31 03:18:22;;;;;;;27.25;19.52;;;5.60;99.90;;;;;;5118639;28;20212;-74
2022/03/31 03:20:48;;;;;;;27.90;19.35;;;5.60;99.90;;;;;;5136680;28;20216;-74
2022/03/31 03:23:14;;;;;;;27.33;17.13;;;5.40;99.90;;;;;;5136367;28;20205;-74
2022/03/31 03:25:41;;;;;;;27.23;19.83;;;5.40;99.90;;;;;;5100587;28;20688;-74
2022/03/31 03:28:08;;;;;;;25.20;20.50;;;5.40;99.90;;;;;;5136592;28;20204;-74
2022/03/31 03:30:34;;;;;;;28.65;19.80;;;5.40;99.90;;;;;;5116402;28;20221;-74
2022/03/31 03:33:01;;;;;;;27.58;19.88;;;5.30;99.90;;;;;;5136403;28;20190;-74
2022/03/31 03:35:27;;;;;;;29.83;21.15;;;5.30;99.90;;;;;;5117942;28;20273;-74
2022/03/31 03:37:54;;;;;;;27.38;19.38;;;5.20;99.90;;;;;;5136335;28;20202;-74
2022/03/31 03:40:20;;;;;;;28.67;20.70;;;5.10;99.90;;;;;;5136948;28;20202;-74
2022/03/31 03:42:47;;;;;;;26.70;20.48;;;5.10;99.90;;;;;;5136616;28;20205;-74
2022/03/31 03:45:14;;;;;;;27.48;19.83;;;5.10;99.90;;;;;;5136868;28;20201;-74
2022/03/31 03:47:43;;;;;;;29.90;22.50;;;5.10;99.90;;;;;;5136741;28;20205;-74
2022/03/31 03:50:10;;;;;;;25.95;19.70;;;5.10;99.90;;;;;;5136451;28;20221;-74
2022/03/31 03:52:37;;;;;;;27.75;21.65;;;5.20;99.90;;;;;;5135903;28;20249;-75
2022/03/31 03:55:04;;;;;;;31.08;22.08;;;5.10;99.90;;;;;;5118038;28;20198;-74
2022/03/31 03:57:31;;;;;;;29.45;21.52;;;5.00;99.90;;;;;;5118030;28;20209;-74
2022/03/31 03:59:57;;;;;;;30.80;21.65;;;5.00;99.90;;;;;;5137041;28;20724;-74
2022/03/31 04:02:24;;;;;;;26.77;19.60;;;5.00;99.90;;;;;;5084991;28;20206;-74
2022/03/31 04:04:50;;;;;;;28.25;21.10;;;5.00;99.90;;;;;;5136496;28;20206;-74
2022/03/31 04:07:17;;;;;;;31.02;22.10;;;5.00;99.90;;;;;;5117997;28;20241;-74
2022/03/31 04:09:43;;;;;;;29.67;20.98;;;5.00;99.90;;;;;;5135847;28;20189;-74
2022/03/31 04:12:10;;;;;;;30.92;21.05;;;5.00;99.90;;;;;;5137160;28;20194;-74
2022/03/31 04:14:36;;;;;;;32.50;21.67;;;5.00;99.90;;;;;;5136685;27;20190;-74
2022/03/31 04:17:03;;;;;;;30.33;21.30;;;5.00;99.90;;;;;;5140485;27;20194;-74
2022/03/31 04:19:30;;;;;;;27.92;21.05;;;5.10;99.90;;;;;;5140035;27;20198;-74
2022/03/31 04:21:56;;;;;;;29.58;22.15;;;5.10;99.90;;;;;;5120401;27;20201;-74
2022/03/31 04:24:23;;;;;;;32.42;21.27;;;5.10;99.90;;;;;;5121226;27;20194;-74
2022/03/31 04:26:49;;;;;;;27.17;19.73;;;5.00;99.90;;;;;;5120698;27;20217;-74
2022/03/31 04:29:16;;;;;;;28.63;20.17;;;5.00;99.90;;;;;;5104155;27;20223;-74
2022/03/31 04:31:43;;;;;;;30.52;21.13;;;5.00;99.90;;;;;;5139474;27;20217;-74
2022/03/31 04:34:11;;;;;;;27.95;19.45;;;5.00;99.90;;;;;;5139298;27;20281;-73
2022/03/31 04:36:37;;;;;;;30.20;20.15;;;5.10;99.90;;;;;;5139836;27;20193;-72
2022/03/31 04:39:03;;;;;;;27.80;20.38;;;5.00;99.90;;;;;;5139153;27;20204;-73
2022/03/31 04:41:30;;;;;;;27.58;18.98;;;5.00;99.90;;;;;;5139391;27;20209;-73
2022/03/31 04:43:56;;;;;;;28.10;20.20;;;5.00;99.90;;;;;;5139552;27;20190;-72
2022/03/31 04:46:23;;;;;;;27.30;19.85;;;5.00;99.90;;;;;;5139704;27;20291;-73
2022/03/31 04:48:49;;;;;;;25.55;18.88;;;5.00;99.90;;;;;;5119578;27;20194;-73
2022/03/31 04:51:15;;;;;;;29.20;19.60;;;4.90;99.90;;;;;;5138496;27;20217;-73
2022/03/31 04:53:41;;;;;;;29.95;19.40;;;4.90;99.90;;;;;;5139227;27;20281;-72
2022/03/31 04:56:08;;;;;;;28.40;20.60;;;4.90;99.90;;;;;;5139924;27;20194;-73
2022/03/31 04:58:36;;;;;;;26.25;20.98;;;4.90;99.90;;;;;;5138985;27;20186;-73
2022/03/31 05:01:03;;;;;;;30.85;19.30;;;4.90;99.90;;;;;;5139158;27;20255;-73
2022/03/31 05:03:30;;;;;;;28.50;19.67;;;5.00;99.90;;;;;;5138467;27;20198;-73
2022/03/31 05:05:56;;;;;;;29.98;19.08;;;5.00;99.90;;;;;;5138779;27;20217;-73
2022/03/31 05:08:23;;;;;;;29.77;20.75;;;5.00;99.90;;;;;;5138594;27;20225;-73
2022/03/31 05:10:49;;;;;;;29.70;19.80;;;5.00;99.90;;;;;;5139414;27;20222;-73
2022/03/31 05:13:15;;;;;;;24.90;18.77;;;5.00;99.90;;;;;;5139808;27;20185;-73
2022/03/31 05:15:41;;;;;;;28.55;19.23;;;5.00;99.90;;;;;;5121717;27;20205;-73
2022/03/31 05:18:08;;;;;;;27.73;20.35;;;5.00;99.90;;;;;;5138000;27;20690;-73
2022/03/31 05:20:34;;;;;;;25.55;19.70;;;5.10;99.90;;;;;;5137920;27;20208;-73
2022/03/31 05:23:00;;;;;;;26.77;19.35;;;5.10;99.90;;;;;;5120649;27;20255;-73
2022/03/31 05:25:27;;;;;;;29.70;19.45;;;5.10;99.90;;;;;;5138146;27;20528;-73
2022/03/31 05:27:53;;;;;;;26.15;19.42;;;5.10;99.90;;;;;;5138039;27;20209;-73
2022/03/31 05:30:20;;;;;;;29.45;20.30;;;5.00;99.90;;;;;;5119463;27;20218;-73
2022/03/31 05:32:47;;;;;;;28.00;19.45;;;5.00;99.90;;;;;;5119459;27;20269;-73
2022/03/31 05:35:14;;;;;;;25.65;17.10;;;5.10;99.90;;;;;;5137436;27;20202;-73
2022/03/31 05:37:41;;;;;;;30.90;19.77;;;5.00;99.90;;;;;;5119946;27;20205;-73
2022/03/31 05:40:09;;;;;;;23.42;18.80;;;5.10;99.90;;;;;;5119288;27;20194;-73
2022/03/31 05:42:37;;;;;;;26.38;21.13;;;5.10;99.90;;;;;;5117847;27;20865;-69
2022/03/31 05:45:05;;;;;;;28.33;19.85;;;5.20;99.90;;;;;;5137041;27;20612;-69
2022/03/31 05:47:32;;;;;;;26.30;20.00;;;5.20;99.90;;;;;;5137096;27;20185;-69
2022/03/31 05:49:59;;;;;;;32.88;19.77;;;5.20;99.90;;;;;;5118040;27;20198;-69
2022/03/31 05:52:25;;;;;;;28.85;19.02;;;5.30;99.90;;;;;;5135832;27;20198;-69
2022/03/31 05:54:52;;;;;;;28.95;19.85;;;5.30;99.90;;;;;;5136048;27;20201;-69
2022/03/31 05:57:18;;;;;;;24.55;18.67;;;5.30;99.90;;;;;;5136230;27;20217;-69
2022/03/31 05:59:44;;;;;;;29.67;20.20;;;5.40;99.90;;;;;;5136218;27;20552;-73
2022/03/31 06:02:11;;;;;;;29.83;19.05;;;5.40;99.90;;;;;;5136764;27;20194;-69
2022/03/31 06:04:38;;;;;;;31.67;19.00;;;5.30;99.90;;;;;;5136223;27;20212;-69
2022/03/31 06:07:05;;;;;;;28.15;18.52;;;5.40;99.90;;;;;;5134973;27;20209;-69
2022/03/31 06:09:32;;;;;;;28.95;19.77;;;5.40;99.90;;;;;;5135625;27;20630;-69
2022/03/31 06:11:59;;;;;;;25.42;18.45;;;5.40;99.90;;;;;;5134604;27;20224;-71
2022/03/31 06:14:25;;;;;;;25.52;17.08;;;5.50;99.90;;;;;;5135404;27;20198;-69
2022/03/31 06:16:52;;;;;;;28.67;18.85;;;5.50;99.90;;;;;;5135516;27;20653;-70
2022/03/31 06:19:18;;;;;;;25.15;17.67;;;5.50;99.90;;;;;;5136097;27;20202;-70
2022/03/31 06:21:45;;;;;;;23.65;18.33;;;5.50;99.90;;;;;;5134873;27;20204;-69
2022/03/31 06:24:11;;;;;;;29.25;19.08;;;5.50;99.90;;;;;;5135590;27;20202;-69
2022/03/31 06:26:38;;;;;;;25.33;17.70;;;5.60;99.90;;;;;;5134661;27;20194;-69
2022/03/31 06:29:06;;;;;;;22.48;16.83;;;5.60;99.90;;;;;;5135214;27;20202;-69
2022/03/31 06:31:32;;;;;;;25.30;19.63;;;5.60;99.90;;;;;;5134274;27;20217;-70
2022/03/31 06:33:59;;;;;;;24.17;17.20;;;5.70;99.90;;;;;;5135241;27;20557;-69
2022/03/31 06:36:25;;;;;;;25.90;18.15;;;5.80;99.90;;;;;;5134361;27;20190;-70
2022/03/31 06:38:52;;;;;;;27.55;18.67;;;5.90;99.90;;;;;;5134712;27;20197;-70
2022/03/31 06:41:18;;;;;;;22.35;15.55;;;6.00;99.90;;;;;;5134643;27;20212;-70
2022/03/31 06:43:48;;;;;;;25.55;17.50;;;6.00;99.90;;;;;;5134931;27;20204;-69
2022/03/31 06:46:15;;;;;;;23.52;17.48;;;6.00;99.90;;;;;;5134498;27;20201;-69
2022/03/31 06:48:46;;;;;;;25.75;16.38;;;6.10;99.90;;;;;;5134547;27;20202;-69
2022/03/31 06:51:14;;;;;;;24.08;18.88;;;6.10;99.90;;;;;;5135088;27;20288;-69
2022/03/31 06:53:41;;;;;;;26.92;19.55;;;6.10;99.90;;;;;;5134553;27;20205;-70
2022/03/31 06:56:10;;;;;;;22.42;17.42;;;6.20;99.90;;;;;;5134917;27;20189;-69
2022/03/31 06:58:37;;;;;;;22.58;17.60;;;6.30;99.90;;;;;;5134933;27;20675;-68
2022/03/31 07:01:04;;;;;;;22.83;16.77;;;6.30;99.90;;;;;;5134572;27;20197;-68
2022/03/31 07:03:30;;;;;;;23.70;16.55;;;6.30;99.90;;;;;;5115979;28;20198;-69
2022/03/31 07:05:57;;;;;;;20.80;15.95;;;6.30;99.90;;;;;;5135013;27;20222;-69
2022/03/31 07:08:24;;;;;;;21.17;15.85;;;6.40;99.90;;;;;;5133498;27;20708;-69
2022/03/31 07:10:51;;;;;;;20.67;15.45;;;6.50;99.90;;;;;;5134640;28;20222;-69
2022/03/31 07:13:18;;;;;;;22.17;16.40;;;6.50;99.90;;;;;;5134847;28;20201;-69
2022/03/31 07:15:45;;;;;;;20.95;16.52;;;6.40;99.90;;;;;;5134561;28;20201;-69
2022/03/31 07:18:11;;;;;;;21.02;16.02;;;6.40;99.90;;;;;;5135007;28;20197;-70
2022/03/31 07:20:38;;;;;;;26.20;16.50;;;6.40;99.90;;;;;;5135168;28;20197;-70
2022/03/31 07:23:05;;;;;;;23.52;15.32;;;6.40;99.90;;;;;;5134181;28;20208;-70
2022/03/31 07:25:32;;;;;;;19.08;15.20;;;6.50;99.90;;;;;;5134443;28;20201;-70
2022/03/31 07:27:58;;;;;;;56.67;18.65;;;6.50;99.90;;;;;;5134274;28;20572;-69
2022/03/31 07:30:25;;;;;;;20.13;15.27;;;6.60;99.90;;;;;;5134481;28;20186;-69
2022/03/31 07:32:54;;;;;;;25.42;16.65;;;6.80;99.90;;;;;;5115841;28;20544;-69
2022/03/31 07:35:24;;;;;;;24.08;16.50;;;6.70;99.90;;;;;;5133348;28;20197;-69
2022/03/31 07:37:51;;;;;;;18.88;15.13;;;6.60;99.90;;;;;;5134086;28;20699;-69
2022/03/31 07:40:20;;;;;;;19.10;14.85;;;6.70;99.90;;;;;;5134585;28;20198;-69
2022/03/31 07:42:46;;;;;;;17.30;14.88;;;6.70;99.90;;;;;;5133888;28;20200;-69
2022/03/31 07:45:13;;;;;;;21.73;15.73;;;6.80;99.90;;;;;;5134274;28;20194;-69
2022/03/31 07:47:41;;;;;;;21.95;17.25;;;6.70;99.90;;;;;;5134398;28;20202;-70
2022/03/31 07:50:09;;;;;;;18.20;14.30;;;6.80;99.90;;;;;;5135164;27;20204;-69
2022/03/31 07:52:40;;;;;;;22.00;16.90;;;6.70;99.90;;;;;;5138264;27;20217;-68
2022/03/31 07:55:09;;;;;;;17.33;14.98;;;6.70;99.90;;;;;;5138000;27;20537;-70
2022/03/31 07:57:36;;;;;;;22.75;14.65;;;6.80;99.90;;;;;;5119444;27;20239;-69
2022/03/31 08:00:08;;;;;;;18.23;15.10;;;7.00;99.90;;;;;;5138471;27;20193;-68
2022/03/31 08:02:35;;;;;;;18.30;14.23;;;6.90;99.90;;;;;;5138698;27;20190;-71
2022/03/31 08:05:01;;;;;;;17.23;13.93;;;7.10;99.90;;;;;;5138052;27;20684;-71
2022/03/31 08:07:28;;;;;;;17.35;14.45;;;7.10;99.90;;;;;;5137672;27;20238;-69
2022/03/31 08:09:54;;;;;;;17.17;13.35;;;7.20;99.90;;;;;;5137849;27;20645;-68
2022/03/31 08:12:21;;;;;;;19.80;12.98;;;7.10;99.90;;;;;;5136785;27;20214;-69
2022/03/31 08:14:47;;;;;;;18.17;14.48;;;7.00;99.90;;;;;;5138055;27;20202;-70
2022/03/31 08:17:14;;;;;;;20.73;14.90;;;7.20;99.90;;;;;;5119063;27;20590;-69
2022/03/31 08:19:40;;;;;;;16.35;13.30;;;7.30;99.90;;;;;;5137812;27;20568;-69
2022/03/31 08:22:06;;;;;;;18.02;14.07;;;7.30;99.90;;;;;;5137267;27;20206;-69
2022/03/31 08:24:34;;;;;;;15.70;13.65;;;7.40;99.90;;;;;;5136775;27;20205;-71
2022/03/31 08:27:00;;;;;;;19.30;14.23;;;7.40;99.90;;;;;;5137992;27;20205;-71
2022/03/31 08:29:27;;;;;;;18.95;14.23;;;7.60;99.90;;;;;;5137301;27;20198;-70
2022/03/31 08:31:54;;;;;;;17.27;13.68;;;7.60;99.90;;;;;;5138514;27;20225;-71
2022/03/31 08:34:20;;;;;;;20.77;14.48;;;7.70;99.90;;;;;;5137691;27;20614;-71
2022/03/31 08:36:46;;;;;;;15.45;13.38;;;7.50;99.90;;;;;;5138354;27;20201;-72
2022/03/31 08:39:13;;;;;;;17.88;13.95;;;7.60;99.90;;;;;;5118442;27;20194;-70
2022/03/31 08:41:41;;;;;;;18.25;14.73;;;7.40;99.90;;;;;;5136205;27;20649;-70
2022/03/31 08:44:08;;;;;;;18.27;14.68;;;7.60;99.90;;;;;;5136829;27;20599;-70
2022/03/31 08:46:34;;;;;;;18.50;13.82;;;7.50;99.90;;;;;;5137163;27;20280;-69
2022/03/31 08:49:02;;;;;;;19.40;14.88;;;7.60;99.90;;;;;;5137307;27;20206;-69
2022/03/31 08:51:29;;;;;;;21.33;14.80;;;7.60;99.90;;;;;;5137552;27;20226;-69
2022/03/31 08:53:55;;;;;;;22.58;15.68;;;7.50;99.90;;;;;;5136766;27;20194;-70
2022/03/31 08:56:22;;;;;;;19.88;16.02;;;7.50;99.90;;;;;;5137385;27;20246;-70
2022/03/31 08:58:48;;;;;;;20.67;15.95;;;7.50;99.90;;;;;;5136726;27;20202;-69
2022/03/31 09:01:16;;;;;;;23.30;15.52;;;7.70;99.90;;;;;;5135917;27;20258;-69
2022/03/31 09:03:43;;;;;;;21.35;16.25;;;7.90;99.90;;;;;;5137045;27;20202;-69
2022/03/31 09:06:28;;;;;;;30.98;17.88;;;8.10;99.90;;;;;;5136276;27;20619;-68
2022/03/31 09:09:00;;;;;;;16.60;13.10;;;8.50;99.90;;;;;;5136030;27;20237;-69
2022/03/31 09:11:35;;;;;;;23.42;15.40;;;8.30;99.90;;;;;;5136444;27;20202;-69
2022/03/31 09:14:03;;;;;;;17.33;14.30;;;8.10;99.90;;;;;;5136889;27;20201;-69
2022/03/31 09:16:34;;;;;;;19.08;14.82;;;8.10;99.90;;;;;;5135908;27;20204;-68
2022/03/31 09:19:13;;;;;;;17.65;13.82;;;8.30;99.90;;;;;;5136469;27;20334;-68
2022/03/31 09:21:58;;;;;;;18.73;14.52;;;8.60;99.90;;;;;;5118433;27;20201;-69
2022/03/31 09:24:28;;;;;;;16.60;14.00;;;8.50;99.90;;;;;;5136268;27;20205;-70
2022/03/31 09:26:57;;;;;;;17.33;12.98;;;8.70;99.90;;;;;;5136623;27;20336;-69
2022/03/31 09:29:26;;;;;;;15.32;13.73;;;8.80;99.90;;;;;;5136732;27;20261;-69
2022/03/31 09:32:04;;;;;;;16.92;14.68;;;8.80;99.90;;;;;;5137031;27;20228;-72
2022/03/31 09:34:45;;;;;;;20.77;14.73;;;9.20;99.90;;;;;;5136373;27;20187;-70
2022/03/31 09:37:13;;;;;;;15.30;13.13;;;9.10;99.90;;;;;;5135707;27;20227;-69
2022/03/31 09:39:40;;;;;;;16.23;14.38;;;9.10;99.90;;;;;;5136126;27;20198;-70
2022/03/31 09:42:11;;;;;;;17.88;12.85;;;9.20;99.90;;;;;;5136516;27;20193;-70
2022/03/31 09:44:39;;;;;;;17.48;13.00;;;9.30;99.90;;;;;;5135990;27;20269;-70
2022/03/31 09:47:05;;;;;;;17.33;14.90;;;9.20;99.90;;;;;;5136303;27;20202;-70
2022/03/31 09:49:31;;;;;;;17.58;13.93;;;9.10;99.90;;;;;;5136051;27;20201;-73
2022/03/31 09:52:01;;;;;;;18.23;14.07;;;9.40;99.90;;;;;;5117637;27;20775;-72
2022/03/31 09:54:30;;;;;;;15.25;13.65;;;9.20;99.90;;;;;;5135576;27;20618;-73
2022/03/31 09:57:00;;;;;;;17.58;14.63;;;9.40;99.90;;;;;;5135545;27;20206;-71
2022/03/31 09:59:34;;;;;;;15.20;12.77;;;9.60;99.90;;;;;;5136625;27;20198;-71
2022/03/31 10:02:02;;;;;;;16.88;13.10;;;9.50;99.90;;;;;;5136986;27;20205;-70
2022/03/31 10:04:30;;;;;;;18.00;14.70;;;9.30;99.90;;;;;;5118246;27;20209;-71
2022/03/31 10:06:56;;;;;;;15.90;13.27;;;9.40;99.90;;;;;;5135569;27;20214;-72
2022/03/31 10:09:23;;;;;;;17.27;14.95;;;9.50;99.90;;;;;;5113875;28;20226;-71
2022/03/31 10:12:18;;;;;;;25.15;14.80;;;9.70;99.90;;;;;;5115193;28;20267;-71
2022/03/31 10:14:54;;;;;;;16.02;14.25;;;9.90;99.90;;;;;;5100771;28;20202;-72
2022/03/31 10:17:28;;;;;;;19.05;15.30;;;9.90;99.90;;;;;;5115483;28;20190;-71
2022/03/31 10:20:10;;;;;;;17.48;15.35;;;9.80;99.90;;;;;;5113504;28;20198;-71
2022/03/31 10:25:33;;;;;;;22.23;15.30;;;9.20;99.90;;;;;;5115467;28;20217;-72
2022/03/31 10:28:23;;;;;;;14.73;12.75;;;9.50;99.90;;;;;;5115571;28;20198;-72
2022/03/31 10:30:56;;;;;;;15.95;13.40;;;9.50;99.90;;;;;;5113643;28;20202;-72
2022/03/31 10:33:37;;;;;;;15.75;13.68;;;9.60;99.90;;;;;;5114824;28;20247;-72
2022/03/31 10:36:12;;;;;;;19.73;15.60;;;9.50;99.90;;;;;;5113463;28;20626;-72
2022/03/31 10:38:51;;;;;;;16.08;13.55;;;9.60;99.90;;;;;;5114646;28;20198;-72
2022/03/31 10:41:18;;;;;;;16.65;12.75;;;9.70;99.90;;;;;;5114925;28;20184;-72
2022/03/31 10:43:48;;;;;;;15.25;13.00;;;9.70;99.90;;;;;;5114558;28;20661;-72
2022/03/31 10:46:19;;;;;;;20.30;13.10;;;10.00;99.90;;;;;;5114422;28;20202;-72
2022/03/31 10:49:10;;;;;;;18.08;12.68;;;10.00;99.90;;;;;;5113511;28;20198;-72
2022/03/31 10:51:38;;;;;;;17.48;13.40;;;9.90;99.90;;;;;;5114821;28;20303;-72
2022/03/31 10:54:08;;;;;;;18.17;14.75;;;9.50;99.90;;;;;;5115406;28;20203;-72
2022/03/31 10:56:35;;;;;;;14.18;12.70;;;10.10;99.90;;;;;;5113711;28;20198;-72
2022/03/31 10:59:04;;;;;;;15.00;12.90;;;10.30;99.90;;;;;;5115504;28;20198;-72
2022/03/31 11:01:37;;;;;;;15.18;13.55;;;10.60;99.90;;;;;;5114921;28;20202;-72
2022/03/31 11:04:13;;;;;;;22.80;14.48;;;10.80;99.90;;;;;;5115108;28;20179;-72
2022/03/31 11:06:51;;;;;;;24.90;18.13;;;10.70;99.90;;;;;;5115273;28;20237;-71
2022/03/31 11:09:27;;;;;;;25.35;18.85;;;10.50;99.90;;;;;;5112864;28;20295;-72
2022/03/31 11:11:56;;;;;;;24.77;20.33;;;10.10;99.90;;;;;;5114507;28;20228;-73
2022/03/31 11:14:23;;;;;;;24.48;21.20;;;10.10;99.90;;;;;;5114136;28;20227;-73
2022/03/31 11:16:49;;;;;;;22.75;19.42;;;9.80;99.90;;;;;;5114125;28;20202;-72
2022/03/31 11:19:19;;;;;;;28.13;21.65;;;9.50;99.90;;;;;;5114836;28;20232;-72
2022/03/31 11:21:47;;;;;;;30.48;22.98;;;9.30;99.90;;;;;;5114583;28;20194;-73
2022/03/31 11:24:13;;;;;;;33.97;23.30;;;9.40;99.90;;;;;;5114201;28;20560;-72
2022/03/31 11:26:44;;;;;;;29.35;22.77;;;9.50;99.90;;;;;;5119048;28;20198;-72
2022/03/31 11:29:15;;;;;;;30.83;23.90;;;9.30;99.90;;;;;;5118117;28;20221;-73
2022/03/31 11:31:46;;;;;;;29.50;22.95;;;9.20;99.90;;;;;;5119023;28;21118;-72
2022/03/31 11:34:26;;;;;;;30.52;24.70;;;9.20;99.90;;;;;;5118441;28;20198;-72
2022/03/31 11:36:54;;;;;;;33.03;26.67;;;9.10;99.90;;;;;;5118551;28;20661;-72
2022/03/31 11:39:29;;;;;;;38.08;29.23;;;8.90;99.90;;;;;;5119046;28;20205;-72
2022/03/31 11:42:00;;;;;;;39.58;30.20;;;8.90;99.90;;;;;;5118686;28;20258;-73
2022/03/31 11:44:30;;;;;;;42.83;30.60;;;8.70;99.90;;;;;;5118263;28;20207;-72
2022/03/31 11:46:56;;;;;;;40.97;31.15;;;8.70;99.90;;;;;;5117753;28;20718;-72
2022/03/31 11:49:25;;;;;;;42.35;32.13;;;8.80;99.90;;;;;;5118399;28;20199;-73
2022/03/31 11:51:54;;;;;;;46.88;32.42;;;9.10;99.90;;;;;;5118081;28;20709;-72
2022/03/31 11:54:22;;;;;;;39.85;30.50;;;9.20;99.90;;;;;;5118474;28;20202;-73
2022/03/31 11:57:03;;;;;;;38.03;31.27;;;9.60;99.90;;;;;;5117818;28;20199;-72
2022/03/31 11:59:30;;;;;;;40.78;30.50;;;9.90;99.90;;;;;;5117341;28;20191;-72
2022/03/31 12:01:57;;;;;;;42.53;31.38;;;9.80;99.90;;;;;;5118181;28;20203;-72
2022/03/31 12:04:28;;;;;;;40.65;30.20;;;9.80;99.90;;;;;;5118395;28;20214;-72
2022/03/31 12:06:56;;;;;;;35.03;28.48;;;9.70;99.90;;;;;;5118040;28;20305;-72
2022/03/31 12:09:26;;;;;;;36.15;27.17;;;9.80;99.90;;;;;;5116176;28;20600;-71
2022/03/31 12:11:54;;;;;;;36.53;27.73;;;9.30;99.90;;;;;;5117746;28;20223;-71
2022/03/31 12:14:20;;;;;;;40.03;27.02;;;9.10;99.90;;;;;;5118114;28;20586;-71
2022/03/31 12:16:50;;;;;;;34.22;27.65;;;9.00;99.90;;;;;;5117175;28;20207;-71
2022/03/31 12:19:17;;;;;;;38.17;26.95;;;8.90;99.90;;;;;;5117304;28;20203;-71
2022/03/31 12:21:56;;;;;;;33.88;26.85;;;8.90;99.90;;;;;;5117203;28;20202;-71
2022/03/31 12:24:23;;;;;;;36.38;27.08;;;9.10;99.90;;;;;;5117440;28;20202;-71
2022/03/31 12:27:00;;;;;;;38.17;26.42;;;9.00;99.90;;;;;;5117842;28;20542;-71
2022/03/31 12:29:32;;;;;;;40.15;25.20;;;9.10;99.90;;;;;;5117670;28;20185;-72
2022/03/31 12:32:04;;;;;;;33.50;25.85;;;8.90;99.90;;;;;;5117978;28;20264;-71
2022/03/31 12:34:32;;;;;;;37.13;25.30;;;8.80;99.90;;;;;;5117379;28;20198;-71
2022/03/31 12:36:59;;;;;;;34.35;24.20;;;8.70;99.90;;;;;;5116082;27;20255;-71
2022/03/31 12:39:27;;;;;;;31.88;25.02;;;8.80;99.90;;;;;;5118517;28;20647;-72
2022/03/31 12:41:57;;;;;;;32.97;25.42;;;8.70;99.90;;;;;;5117326;28;20206;-73
2022/03/31 12:44:30;;;;;;;36.92;25.92;;;8.70;99.90;;;;;;5117282;28;20630;-72
2022/03/31 12:47:01;;;;;;;37.72;24.80;;;8.90;99.90;;;;;;5117124;28;20596;-72